Aeroporto :







RITROVATECI SU...

 
LOGIN :

Iscrizione | Disclaimer

   EN    FR    IT 

 









Sommario :    VFR   VFR Marginale   IFR   IFR Intensivo   IFR Molto Intensivo
Visibilità : 
Base nubi : 
>= 8 km
>= 3000ft
5 / 8 km
1000 / 3000 ft
1500m / 5 km
500 / 1000 ft
800 / 1500m
200 / 500 ft
< 800m
< 200 ft
Simboli :   Temporali  Nebbia  Neve Forte  Precipitazioni Forti  Vento > 20 kt






- Altitudine del aeroporto : 16 ft
- Codice IATA : FDF


TFFF - Aime Cesaire

ULTIMO METAR :
  • 291400Z AUTO 12015KT 9999 FEW031 BKN072 29/21 Q1019 TEMPO 4500 SHRA BKN025TCU

METARs OBSOLETI :
  • 291330Z AUTO 12012KT 9999 FEW026 BKN072 28/22 Q1019 TEMPO 4500 SHRA BKN025TCU
  • 291300Z AUTO 11011KT 9999 FEW045 BKN070 27/21 Q1018 TEMPO 4500 SHRA BKN025TCU
  • 291230Z AUTO 13007KT 100V170 9999 FEW029 BKN068 26/20 Q1018 TEMPO 4500 SHRA BKN025TCU
  • 291200Z AUTO 11009KT CAVOK 26/21 Q1018 TEMPO 4500 SHRA BKN025TCU
  • 291130Z AUTO 12006KT 9999 SCT026 BKN047 OVC056 24/22 Q1017 TEMPO 4500 SHRA BKN025TCU
  • 291100Z AUTO 23001KT 9999 FEW027 OVC068 24/21 Q1017 TEMPO 4500 SHRA BKN025TCU

TAF TAF TFFF
Valido dal 29 a 12 ore il 01 a 12 ore UTC


291000Z 2912/0112 10006KT 9999 SCT025 SCT050
PROB30
TEMPO 2912/2920 4500 SHRA BKN025TCU



MetMap, La meteo Aeronautica in un colpo d'occhio ! - Copyright ORBIFLY Dicembre 2007 - Disclaimer

ORBIFLY MET'MAP TEAM :

Programmazione e sviluppo : Alexandra Zaïnal
Concezione : Baudouin d'Aumeries
Aiuto per la programmazione : Marc-Olivier Méhu
Supporto tecnico e logistico : Manuel Goepfert
Aiuto per la traduzione : Arnaldo La Scala

Contatto : metmap@orbifly.com




FONTI E CREDITI :

   NOAA